Time,TemperatureF,DewpointF,PressureIn,WindDirection,WindDirectionDegrees,WindSpeedMPH,WindSpeedGustMPH,Humidity,HourlyPrecipIn,Conditions,Clouds,dailyrainin,SoftwareType,DateUTC
2013-12-20 00:00:00,36.5,18.2,0.00,WNW,282,0.0,0.0,47,0.00,,,0.00,Weather View 32 v70,2013-12-20 05:00:00,
2013-12-20 00:15:00,36.1,17.8,0.00,WNW,282,0.0,0.0,47,0.00,,,0.00,Weather View 32 v70,2013-12-20 05:15:00,
2013-12-20 00:23:00,36.1,17.8,0.00,WNW,282,0.0,0.0,47,0.00,,,0.00,Weather View 32 v70,2013-12-20 05:23:00,
2013-12-20 00:30:00,35.8,18.0,0.00,WNW,282,0.0,0.0,48,0.00,,,0.00,Weather View 32 v70,2013-12-20 05:30:00,
2013-12-20 00:45:00,35.8,18.9,0.00,WNW,282,0.0,0.0,50,0.00,,,0.00,Weather View 32 v70,2013-12-20 05:45:00,
2013-12-20 01:00:00,36.0,19.1,0.00,WNW,282,0.0,0.0,50,0.00,,,0.00,Weather View 32 v70,2013-12-20 06:00:00,
2013-12-20 01:15:00,36.1,19.3,0.00,WNW,282,0.0,0.0,50,0.00,,,0.00,Weather View 32 v70,2013-12-20 06:15:00,
2013-12-20 01:23:00,36.1,19.3,0.00,WNW,282,0.0,0.0,50,0.00,,,0.00,Weather View 32 v70,2013-12-20 06:23:00,
2013-12-20 01:30:00,35.6,18.8,0.00,WNW,282,0.0,0.0,50,0.00,,,0.00,Weather View 32 v70,2013-12-20 06:30:00,
2013-12-20 01:45:00,35.6,19.7,0.00,WNW,282,0.0,0.0,52,0.00,,,0.00,Weather View 32 v70,2013-12-20 06:45:00,
2013-12-20 02:00:00,35.2,19.8,0.00,WNW,282,0.0,0.0,53,0.00,,,0.00,Weather View 32 v70,2013-12-20 07:00:00,
2013-12-20 02:15:00,35.4,20.4,0.00,WNW,282,0.0,0.0,54,0.00,,,0.00,Weather View 32 v70,2013-12-20 07:15:00,
2013-12-20 02:24:00,35.4,20.4,0.00,WNW,282,0.0,0.0,54,0.00,,,0.00,Weather View 32 v70,2013-12-20 07:24:00,
2013-12-20 02:30:00,35.6,20.1,0.00,WNW,282,0.0,0.0,53,0.00,,,0.00,Weather View 32 v70,2013-12-20 07:30:00,
2013-12-20 02:45:00,35.6,19.7,0.00,WNW,282,0.0,0.0,52,0.00,,,0.00,Weather View 32 v70,2013-12-20 07:45:00,
2013-12-20 03:00:00,35.1,19.2,0.00,WNW,282,0.0,0.0,52,0.00,,,0.00,Weather View 32 v70,2013-12-20 08:00:00,
2013-12-20 03:15:00,35.1,19.2,0.00,North,7,0.0,0.0,52,0.00,,,0.00,Weather View 32 v70,2013-12-20 08:15:00,
2013-12-20 03:24:00,35.1,19.2,0.00,North,7,0.0,0.0,52,0.00,,,0.00,Weather View 32 v70,2013-12-20 08:24:00,
2013-12-20 03:30:00,34.7,19.3,0.00,North,7,0.0,0.0,53,0.00,,,0.00,Weather View 32 v70,2013-12-20 08:30:00,
2013-12-20 03:45:00,35.1,19.6,0.00,North,7,0.0,0.0,53,0.00,,,0.00,Weather View 32 v70,2013-12-20 08:45:00,
2013-12-20 04:00:00,35.2,19.8,0.00,North,7,0.0,0.0,53,0.00,,,0.00,Weather View 32 v70,2013-12-20 09:00:00,
2013-12-20 04:15:00,34.9,19.5,0.00,North,7,0.0,0.0,53,0.00,,,0.00,Weather View 32 v70,2013-12-20 09:15:00,
2013-12-20 04:30:00,35.1,20.1,0.00,North,7,0.0,0.0,54,0.00,,,0.00,Weather View 32 v70,2013-12-20 09:30:00,
2013-12-20 04:45:00,35.1,20.1,0.00,North,7,0.0,0.0,54,0.00,,,0.00,Weather View 32 v70,2013-12-20 09:45:00,
2013-12-20 05:00:00,35.1,20.1,0.00,North,7,0.0,0.0,54,0.00,,,0.00,Weather View 32 v70,2013-12-20 10:00:00,
2013-12-20 05:15:00,35.1,20.1,0.00,North,7,0.0,0.0,54,0.00,,,0.00,Weather View 32 v70,2013-12-20 10:15:00,
2013-12-20 05:30:00,34.9,19.5,0.00,North,7,0.0,0.0,53,0.00,,,0.00,Weather View 32 v70,2013-12-20 10:30:00,
2013-12-20 05:45:00,34.7,19.3,0.00,SW,218,0.0,3.0,53,0.00,,,0.00,Weather View 32 v70,2013-12-20 10:45:00,
2013-12-20 06:00:00,35.1,19.6,0.00,SW,218,0.0,3.0,53,0.00,,,0.00,Weather View 32 v70,2013-12-20 11:00:00,
2013-12-20 06:15:00,34.5,20.0,0.00,SW,218,0.0,3.0,55,0.00,,,0.00,Weather View 32 v70,2013-12-20 11:15:00,
2013-12-20 06:30:00,34.3,20.3,0.00,WNW,296,0.0,3.0,56,0.00,,,0.00,Weather View 32 v70,2013-12-20 11:30:00,
2013-12-20 06:45:00,34.9,21.2,0.00,WNW,301,0.0,0.0,57,0.00,,,0.00,Weather View 32 v70,2013-12-20 11:45:00,
2013-12-20 07:00:00,34.3,20.3,0.00,WNW,302,0.0,0.0,56,0.00,,,0.00,Weather View 32 v70,2013-12-20 12:00:00,
2013-12-20 07:15:00,34.2,20.5,0.00,WNW,301,0.0,0.0,57,0.00,,,0.00,Weather View 32 v70,2013-12-20 12:15:00,
2013-12-20 07:30:00,34.0,19.5,0.00,WNW,302,0.0,0.0,55,0.00,,,0.00,Weather View 32 v70,2013-12-20 12:30:00,
2013-12-20 07:45:00,34.0,19.1,0.00,WNW,302,0.0,0.0,54,0.00,,,0.00,Weather View 32 v70,2013-12-20 12:45:00,
2013-12-20 08:00:00,34.5,20.0,0.00,WNW,302,0.0,0.0,55,0.00,,,0.00,Weather View 32 v70,2013-12-20 13:00:00,
2013-12-20 08:15:00,34.9,20.8,0.00,WNW,302,0.0,0.0,56,0.00,,,0.00,Weather View 32 v70,2013-12-20 13:15:00,
2013-12-20 08:30:00,35.6,21.0,0.00,WNW,302,0.0,0.0,55,0.00,,,0.00,Weather View 32 v70,2013-12-20 13:30:00,
2013-12-20 08:45:00,35.6,21.0,0.00,WNW,302,0.0,0.0,55,0.00,,,0.00,Weather View 32 v70,2013-12-20 13:45:00,
2013-12-20 09:00:00,36.9,22.2,0.00,WNW,301,0.0,0.0,55,0.00,,,0.00,Weather View 32 v70,2013-12-20 14:00:00,
2013-12-20 09:15:00,37.9,22.3,0.00,WNW,301,0.0,0.0,53,0.00,,,0.00,Weather View 32 v70,2013-12-20 14:15:00,
2013-12-20 09:30:00,39.2,21.1,0.00,WNW,302,0.0,0.0,48,0.00,,,0.00,Weather View 32 v70,2013-12-20 14:30:00,
2013-12-20 09:45:00,42.3,21.3,0.00,WNW,302,0.0,0.0,43,0.00,,,0.00,Weather View 32 v70,2013-12-20 14:45:00,
2013-12-20 10:00:00,44.6,20.5,0.00,WNW,302,0.0,0.0,38,0.00,,,0.00,Weather View 32 v70,2013-12-20 15:00:00,
2013-12-20 10:15:00,47.1,22.1,0.00,WNW,293,2.0,4.0,37,0.00,,,0.00,Weather View 32 v70,2013-12-20 15:15:00,
2013-12-20 10:30:00,49.3,19.1,0.00,SSW,196,0.0,5.0,30,0.00,,,0.00,Weather View 32 v70,2013-12-20 15:30:00,
2013-12-20 10:45:00,49.5,19.3,0.00,South,185,3.0,6.0,30,0.00,,,0.00,Weather View 32 v70,2013-12-20 15:45:00,
2013-12-20 11:00:00,48.4,19.1,0.00,WSW,251,3.0,6.0,31,0.00,,,0.00,Weather View 32 v70,2013-12-20 16:00:00,
2013-12-20 11:15:00,47.8,20.1,0.00,SW,221,4.0,6.0,33,0.00,,,0.00,Weather View 32 v70,2013-12-20 16:15:00,
2013-12-20 11:30:00,49.6,19.4,0.00,SSW,212,3.0,6.0,30,0.04,,,0.04,Weather View 32 v70,2013-12-20 16:30:00,
2013-12-20 11:45:00,49.3,19.9,0.00,SW,223,3.0,6.0,31,0.04,,,0.04,Weather View 32 v70,2013-12-20 16:45:00,
2013-12-20 12:00:00,46.6,19.7,0.00,SSW,213,3.0,6.0,34,0.04,,,0.04,Weather View 32 v70,2013-12-20 17:00:00,
2013-12-20 12:15:00,46.6,21.0,0.00,SW,233,4.0,6.0,36,0.08,,,0.08,Weather View 32 v70,2013-12-20 17:15:00,
2013-12-20 12:30:00,48.0,20.9,0.00,SSW,192,3.0,6.0,34,0.04,,,0.08,Weather View 32 v70,2013-12-20 17:30:00,
2013-12-20 12:45:00,50.2,19.9,0.00,WSW,253,3.0,6.0,30,0.04,,,0.08,Weather View 32 v70,2013-12-20 17:45:00,
2013-12-20 13:00:00,49.3,19.9,0.00,SSW,211,3.0,6.0,31,0.04,,,0.08,Weather View 32 v70,2013-12-20 18:00:00,
2013-12-20 13:15:00,49.3,19.9,0.00,WSW,237,3.0,6.0,31,0.00,,,0.08,Weather View 32 v70,2013-12-20 18:15:00,
2013-12-20 13:30:00,49.5,20.0,0.00,South,180,3.0,6.0,31,0.04,,,0.12,Weather View 32 v70,2013-12-20 18:30:00,
2013-12-20 13:45:00,48.9,19.6,0.00,SSW,204,4.0,6.0,31,0.04,,,0.12,Weather View 32 v70,2013-12-20 18:45:00,
2013-12-20 14:00:00,48.6,19.2,0.00,SSW,204,5.0,6.0,31,0.04,,,0.12,Weather View 32 v70,2013-12-20 19:00:00,
2013-12-20 14:15:00,47.8,19.4,0.00,SW,223,4.0,6.0,32,0.04,,,0.12,Weather View 32 v70,2013-12-20 19:15:00,
2013-12-20 14:30:00,47.5,20.5,0.00,SSW,212,4.0,6.0,34,0.00,,,0.12,Weather View 32 v70,2013-12-20 19:30:00,
2013-12-20 14:45:00,47.7,20.6,0.00,SW,233,0.0,6.0,34,0.00,,,0.12,Weather View 32 v70,2013-12-20 19:45:00,
2013-12-20 15:00:00,48.0,20.2,0.00,SSW,210,3.0,6.0,33,0.00,,,0.12,Weather View 32 v70,2013-12-20 20:00:00,
2013-12-20 15:15:00,48.7,20.1,0.00,SSW,213,3.0,6.0,32,0.00,,,0.12,Weather View 32 v70,2013-12-20 20:15:00,
2013-12-20 15:30:00,48.2,19.7,0.00,SW,227,4.0,6.0,32,0.00,,,0.12,Weather View 32 v70,2013-12-20 20:30:00,
2013-12-20 15:45:00,47.8,20.8,0.00,SW,226,4.0,6.0,34,0.00,,,0.12,Weather View 32 v70,2013-12-20 20:45:00,
2013-12-20 16:00:00,47.1,20.1,0.00,SSW,208,6.0,6.0,34,0.00,,,0.12,Weather View 32 v70,2013-12-20 21:00:00,
2013-12-20 16:15:00,46.8,21.2,0.00,SW,224,4.0,6.0,36,0.00,,,0.12,Weather View 32 v70,2013-12-20 21:15:00,
2013-12-20 16:30:00,46.4,21.5,0.00,SW,228,5.0,8.0,37,0.00,,,0.12,Weather View 32 v70,2013-12-20 21:30:00,
2013-12-20 16:45:00,46.2,21.3,0.00,SW,236,4.0,8.0,37,0.00,,,0.12,Weather View 32 v70,2013-12-20 21:45:00,
2013-12-20 17:00:00,46.0,21.2,0.00,WSW,250,3.0,8.0,37,0.00,,,0.12,Weather View 32 v70,2013-12-20 22:00:00,
2013-12-20 17:15:00,46.0,21.8,0.00,WSW,247,4.0,8.0,38,0.00,,,0.12,Weather View 32 v70,2013-12-20 22:15:00,
2013-12-20 17:30:00,46.0,21.8,0.00,SW,235,4.0,6.0,38,0.00,,,0.12,Weather View 32 v70,2013-12-20 22:30:00,
2013-12-20 17:45:00,45.5,21.3,0.00,WSW,240,3.0,8.0,38,0.00,,,0.12,Weather View 32 v70,2013-12-20 22:45:00,
2013-12-20 18:00:00,45.7,21.5,0.00,SSW,209,3.0,8.0,38,0.00,,,0.12,Weather View 32 v70,2013-12-20 23:00:00,
2013-12-20 18:15:00,45.5,21.3,0.00,WSW,237,5.0,8.0,38,0.00,,,0.12,Weather View 32 v70,2013-12-20 23:15:00,
2013-12-20 18:30:00,45.5,21.3,0.00,WSW,254,6.0,8.0,38,0.00,,,0.12,Weather View 32 v70,2013-12-20 23:30:00,
2013-12-20 18:45:00,45.1,21.6,0.00,WSW,245,4.0,8.0,39,0.00,,,0.12,Weather View 32 v70,2013-12-20 23:45:00,
2013-12-20 19:00:00,44.6,21.1,0.00,WSW,245,3.0,8.0,39,0.00,,,0.12,Weather View 32 v70,2013-12-21 00:00:00,
2013-12-20 19:15:00,44.6,21.7,0.00,SW,227,4.0,6.0,40,0.00,,,0.12,Weather View 32 v70,2013-12-21 00:15:00,
2013-12-20 19:30:00,45.0,22.1,0.00,SW,224,5.0,6.0,40,0.00,,,0.12,Weather View 32 v70,2013-12-21 00:30:00,
2013-12-20 19:45:00,45.1,21.6,0.00,WSW,239,4.0,6.0,39,0.00,,,0.12,Weather View 32 v70,2013-12-21 00:45:00,
2013-12-20 20:00:00,45.1,21.6,0.00,WSW,237,4.0,6.0,39,0.00,,,0.12,Weather View 32 v70,2013-12-21 01:00:00,
2013-12-20 20:15:00,45.3,21.8,0.00,WSW,249,0.0,6.0,39,0.00,,,0.12,Weather View 32 v70,2013-12-21 01:15:00,
2013-12-20 20:30:00,45.3,21.8,0.00,SW,224,4.0,6.0,39,0.00,,,0.12,Weather View 32 v70,2013-12-21 01:30:00,
2013-12-20 20:45:00,45.1,21.6,0.00,SSW,211,3.0,5.0,39,0.00,,,0.12,Weather View 32 v70,2013-12-21 01:45:00,
2013-12-20 21:00:00,45.0,22.1,0.00,SW,218,3.0,5.0,40,0.00,,,0.12,Weather View 32 v70,2013-12-21 02:00:00,
2013-12-20 21:15:00,45.1,22.2,0.00,SSW,209,3.0,5.0,40,0.00,,,0.12,Weather View 32 v70,2013-12-21 02:15:00,
2013-12-20 21:30:00,44.8,21.9,0.00,SW,220,4.0,4.0,40,0.00,,,0.12,Weather View 32 v70,2013-12-21 02:30:00,
2013-12-20 21:45:00,45.1,22.2,0.00,SSW,209,3.0,5.0,40,0.00,,,0.12,Weather View 32 v70,2013-12-21 02:45:00,
2013-12-20 22:00:00,44.6,22.3,0.00,SW,219,0.0,5.0,41,0.00,,,0.12,Weather View 32 v70,2013-12-21 03:00:00,
2013-12-20 22:15:00,43.9,22.2,0.00,SW,226,2.0,5.0,42,0.00,,,0.12,Weather View 32 v70,2013-12-21 03:15:00,
2013-12-20 22:30:00,45.0,22.6,0.00,SW,216,3.0,5.0,41,0.00,,,0.12,Weather View 32 v70,2013-12-21 03:30:00,
2013-12-20 22:35:00,45.0,22.6,0.00,SW,216,3.0,5.0,41,0.00,,,0.12,Weather View 32 v70,2013-12-21 03:35:00,
2013-12-20 22:45:00,44.8,22.5,0.00,SSW,209,3.0,4.0,41,0.00,,,0.12,Weather View 32 v70,2013-12-21 03:45:00,
2013-12-20 23:00:00,44.8,22.5,0.00,SW,236,4.0,5.0,41,0.00,,,0.12,Weather View 32 v70,2013-12-21 04:00:00,
2013-12-20 23:15:00,45.0,22.6,0.00,SW,234,4.0,5.0,41,0.00,,,0.12,Weather View 32 v70,2013-12-21 04:15:00,
2013-12-20 23:30:00,45.5,22.5,0.00,SW,235,4.0,6.0,40,0.00,,,0.12,Weather View 32 v70,2013-12-21 04:30:00,
2013-12-20 23:35:00,45.5,22.5,0.00,SW,235,4.0,6.0,40,0.00,,,0.12,Weather View 32 v70,2013-12-21 04:35:00,
2013-12-20 23:45:00,45.5,22.5,0.00,WSW,237,4.0,6.0,40,0.00,,,0.12,Weather View 32 v70,2013-12-21 04:45:00,